METAR AND TAF INFORMATION
METAR FOR LEGR
ADDS - METARS form results

(2007 UTC 24 March 2019)
Data provider http://aviationweather.gov/metar/data/
 
METAR text: LEGR 242000Z VRB02KT 9999 FEW060 SCT090 12/08 Q1020
Conditions at: LEGR (GRANADA AIRPORT , ES) observed 2000 UTC 24 March 2019
Temperature: 12.0°C (54°F)
Dewpoint: 8.0°C (46°F) [RH = 76%]
Pressure (altimeter): 30.12 inches Hg (1020.0 mb)
Winds: variable direction winds at 2 MPH (2 knots; 1.0 m/s)
Visibility: 6 or more miles (10+ km)
Ceiling: at least 12,000 feet AGL
Clouds: few clouds at 6000 feet AGL
scattered clouds at 9000 feet AGL
Weather: no significant weather observed at this time

METAR text: LEGR 241930Z VRB02KT 9999 FEW060 SCT090 13/07 Q1020
Conditions at: LEGR (GRANADA AIRPORT , ES) observed 1930 UTC 24 March 2019
Temperature: 13.0°C (55°F)
Dewpoint: 7.0°C (45°F) [RH = 67%]
Pressure (altimeter): 30.12 inches Hg (1020.0 mb)
Winds: variable direction winds at 2 MPH (2 knots; 1.0 m/s)
Visibility: 6 or more miles (10+ km)
Ceiling: at least 12,000 feet AGL
Clouds: few clouds at 6000 feet AGL
scattered clouds at 9000 feet AGL
Weather: no significant weather observed at this time

Forecast for: LEGR (GRANADA AIRPORT , ES)
Text: TAF LEGR 241400Z 2415/2515 VRB02KT 9999 SCT050 SCT080 TX22/2515Z TN03/2506Z
Forecast period: 1500 UTC 24 March 2019 to 1500 UTC 25 March 2019
Forecast type: FROM: standard forecast or significant change
Winds: variable direction winds at 2 MPH (2 knots; 1.0 m/s)
Visibility: 6 or more miles 10+ km)
Ceiling: at least 12,000 feet AGL
Clouds: scattered clouds at 5000 feet AGL
scattered clouds at 8000 feet AGL
Weather: no significant weather forecast for this period
Text: TEMPO 2415/2417 18010KT 4000 -SHRA SCT040CB BKN075
Forecast period: 1500 to 1700 UTC 24 March 2019
Forecast type: TEMPORARY: The following changes expected for less than half the time period
Winds: from the S (180 degrees) at 12 MPH (10 knots; 5.1 m/s)
Visibility: 2.49 miles (4.01 km)
Ceiling: 7500 feet AGL
Clouds: scattered clouds at 4000 feet AGL
broken clouds at 7500 feet AGL
Weather: -SHRA  (light rain showers)

AIRPORT MAP

RUNWAY INFORMATION
Runway 09 Runway length 9514 ft Runway width 148 ft
Runway elevation 1842 ft Runway displaced threshold 0 ft Runway heading 90
Runway 27 Runway length 9514 ft Runway width 148 ft
Runway elevation 1860 ft Runway displaced threshold 0 ft Runway heading 270

AIRPORT FREQUENCIES
Type GND Name GND Frequency 121.7 MHZ
Type TWR Name TWR Frequency 118.85 MHZ

AIRPORT NEAR NAVIGATION AIDS
Type VOR-DME Name Granada Frequency 113400 KHZ